Terminal Aerodrome Forecast
Issued by NWS

Home | Current Version | Previous Version | Text Only | Print | Product List | Glossary On
Versions: 1 2 3 4 5 6 7 8 9 10 11 12 13
000
FTUS45 KVEF 042320
TAFHND
TAF
KHND 042320Z 0500/0524 22015G25KT P6SM SCT250
     FM050400 21010KT P6SM SCT250
     FM051900 22015G25KT P6SM SCT250=

USA.gov is the U.S. government's official web portal to all federal, state and local government web resources and services.